Time;durP1;ratioP1;P1;durP2;ratioP2;P2;SDS_P1;SDS_P2;PMS_P1;PMS_P2;Temp;Humidity;BMP_temperature;BMP_pressure;BME280_temperature;BME280_humidity;BME280_pressure;Samples;Min_cycle;Max_cycle;Signal;HPM_P1;HPM_P2
2021/12/28 00:01:22;;;;;;;143.38;112.88;;;25.80;99.90;;;;;;5025881;28;20100;-71
2021/12/28 00:03:48;;;;;;;141.50;99.65;;;25.70;99.90;;;;;;5035519;28;20037;-69
2021/12/28 00:06:16;;;;;;;329.15;170.57;;;25.60;99.90;;;;;;5035622;28;20026;-72
2021/12/28 00:08:43;;;;;;;259.27;107.05;;;25.60;99.90;;;;;;5034903;28;20060;-71
2021/12/28 00:11:10;;;;;;;352.73;264.98;;;25.60;99.90;;;;;;5035148;28;20374;-73
2021/12/28 00:13:38;;;;;;;114.18;82.75;;;25.60;99.90;;;;;;5035378;28;20025;-69
2021/12/28 00:18:38;;;;;;;74.28;54.45;;;25.50;99.90;;;;;;5034889;28;20421;-72
2021/12/28 00:21:07;;;;;;;59.22;44.85;;;25.50;99.90;;;;;;5035047;28;20025;-70
2021/12/28 00:23:38;;;;;;;69.13;47.00;;;25.50;99.90;;;;;;5031884;28;20030;-76
2021/12/28 00:26:09;;;;;;;50.03;35.20;;;25.60;99.90;;;;;;5036350;28;20078;-74
2021/12/28 00:28:36;;;;;;;51.80;34.35;;;25.60;99.90;;;;;;5021174;28;20169;-71
2021/12/28 00:31:03;;;;;;;140.13;100.50;;;25.50;99.90;;;;;;5017548;28;20029;-72
2021/12/28 00:33:30;;;;;;;133.65;95.72;;;25.60;99.90;;;;;;5030992;28;20029;-70
2021/12/28 00:35:56;;;;;;;158.95;108.65;;;25.70;99.90;;;;;;5034633;28;20017;-69
2021/12/28 00:38:26;;;;;;;43.00;29.67;;;25.80;99.90;;;;;;5034601;28;20029;-70
2021/12/28 00:40:59;;;;;;;47.50;29.35;;;25.80;99.90;;;;;;5034993;28;20033;-69
2021/12/28 00:43:28;;;;;;;131.80;98.53;;;25.80;99.90;;;;;;5034667;28;20037;-71
2021/12/28 00:45:55;;;;;;;48.78;34.10;;;25.80;99.90;;;;;;5034577;28;20044;-69
2021/12/28 00:48:22;;;;;;;46.30;32.35;;;25.90;99.90;;;;;;5031246;28;20029;-71
2021/12/28 00:50:52;;;;;;;46.40;29.75;;;26.00;99.90;;;;;;5029964;28;20033;-70
2021/12/28 00:53:19;;;;;;;51.20;31.10;;;26.10;99.90;;;;;;5031036;28;20034;-70
2021/12/28 00:55:46;;;;;;;44.95;31.55;;;26.20;99.90;;;;;;5034277;28;20020;-68
2021/12/28 00:58:12;;;;;;;47.88;33.50;;;26.10;99.90;;;;;;5016275;28;20076;-70
2021/12/28 01:00:40;;;;;;;44.33;33.30;;;26.10;99.90;;;;;;5017549;28;20029;-69
2021/12/28 01:03:08;;;;;;;50.42;39.97;;;26.20;99.90;;;;;;5023389;28;20049;-71
2021/12/28 01:05:36;;;;;;;51.10;38.92;;;26.20;99.90;;;;;;5034483;28;20021;-67
2021/12/28 01:08:04;;;;;;;63.67;45.90;;;26.20;99.90;;;;;;5034140;28;20478;-69
2021/12/28 01:10:39;;;;;;;56.00;37.95;;;26.20;99.90;;;;;;5031303;28;20026;-69
2021/12/28 01:13:06;;;;;;;48.22;33.45;;;26.20;99.90;;;;;;5026886;28;20250;-67
2021/12/28 01:15:33;;;;;;;45.20;32.55;;;26.30;99.90;;;;;;5023054;28;20164;-69
2021/12/28 01:18:00;;;;;;;44.00;31.05;;;26.40;99.90;;;;;;5024597;28;20506;-70
2021/12/28 01:20:27;;;;;;;46.60;32.42;;;26.50;99.90;;;;;;5026315;28;20217;-67
2021/12/28 01:22:55;;;;;;;42.47;30.48;;;26.50;99.90;;;;;;5020900;28;20022;-69
2021/12/28 01:25:22;;;;;;;46.90;30.25;;;26.60;99.90;;;;;;5032478;28;20044;-68
2021/12/28 01:27:49;;;;;;;44.70;30.35;;;26.70;99.90;;;;;;5037892;28;20946;-70
2021/12/28 01:30:20;;;;;;;43.13;33.40;;;26.80;99.90;;;;;;5053832;28;20032;-71
2021/12/28 01:32:48;;;;;;;54.33;37.08;;;26.80;99.90;;;;;;5033432;28;20120;-71
2021/12/28 01:35:16;;;;;;;51.60;38.22;;;26.90;99.90;;;;;;5033553;28;20033;-69
2021/12/28 01:37:44;;;;;;;56.90;45.10;;;26.90;99.90;;;;;;5031042;28;20026;-67
2021/12/28 01:40:13;;;;;;;59.58;45.05;;;26.90;99.90;;;;;;5030476;28;20025;-69
2021/12/28 01:43:02;;;;;;;70.97;52.25;;;26.90;99.90;;;;;;5030458;28;20025;-69
2021/12/28 01:45:37;;;;;;;72.13;51.53;;;27.00;99.90;;;;;;5033736;28;20477;-69
2021/12/28 01:48:07;;;;;;;64.05;50.38;;;27.10;99.90;;;;;;5033638;28;20075;-68
2021/12/28 01:50:34;;;;;;;58.38;44.00;;;27.20;99.90;;;;;;5033642;28;20083;-69
2021/12/28 01:53:02;;;;;;;54.10;44.70;;;27.20;99.90;;;;;;5029554;28;20117;-69
2021/12/28 01:55:29;;;;;;;60.75;45.20;;;27.30;99.90;;;;;;5023809;28;20087;-68
2021/12/28 01:57:56;;;;;;;55.20;39.38;;;27.20;99.90;;;;;;5026564;28;20105;-68
2021/12/28 02:00:24;;;;;;;75.85;53.92;;;27.40;99.90;;;;;;5030634;28;20026;-67
2021/12/28 02:02:51;;;;;;;102.75;69.05;;;27.40;99.90;;;;;;5028759;28;20045;-68
2021/12/28 02:05:18;;;;;;;46.53;34.25;;;27.40;99.90;;;;;;5022282;28;20030;-68
2021/12/28 02:07:44;;;;;;;40.72;28.73;;;27.40;99.90;;;;;;5026394;28;20037;-67
2021/12/28 02:10:11;;;;;;;46.05;29.20;;;27.40;99.90;;;;;;5030377;28;20072;-67
2021/12/28 02:12:38;;;;;;;44.10;28.40;;;27.40;99.90;;;;;;5024866;28;20026;-67
2021/12/28 02:15:12;;;;;;;39.17;27.35;;;27.70;99.90;;;;;;5024417;28;20029;-67
2021/12/28 02:17:40;;;;;;;41.42;29.33;;;27.70;99.90;;;;;;5023614;28;20037;-68
2021/12/28 02:20:10;;;;;;;37.33;25.15;;;27.90;99.90;;;;;;5024223;28;20487;-67
2021/12/28 02:22:37;;;;;;;39.92;27.25;;;27.90;99.90;;;;;;5029637;28;20390;-69
2021/12/28 02:25:04;;;;;;;31.92;24.98;;;27.80;99.90;;;;;;5031653;28;20033;-70
2021/12/28 02:27:31;;;;;;;36.35;23.30;;;27.70;99.90;;;;;;5033258;28;20033;-68
2021/12/28 02:29:58;;;;;;;35.88;25.40;;;27.70;99.90;;;;;;5033221;28;20021;-68
2021/12/28 02:32:30;;;;;;;42.92;29.00;;;27.80;99.90;;;;;;5032557;28;20033;-68
2021/12/28 02:34:57;;;;;;;35.75;27.10;;;27.70;99.90;;;;;;5033143;28;20040;-66
2021/12/28 02:37:25;;;;;;;35.15;25.63;;;27.80;99.90;;;;;;5033275;28;20064;-67
2021/12/28 02:39:52;;;;;;;35.90;25.15;;;28.00;99.90;;;;;;5033297;28;20363;-66
2021/12/28 02:42:21;;;;;;;30.40;23.27;;;28.10;99.90;;;;;;5033040;28;20026;-66
2021/12/28 02:44:56;;;;;;;32.42;22.40;;;28.20;99.90;;;;;;5033241;28;20075;-65
2021/12/28 02:47:23;;;;;;;33.63;22.65;;;28.30;99.90;;;;;;5036003;28;20075;-67
2021/12/28 02:49:50;;;;;;;28.83;20.88;;;28.30;99.90;;;;;;5036947;28;20431;-70
2021/12/28 02:52:17;;;;;;;31.67;21.15;;;28.20;99.90;;;;;;5036373;28;20504;-68
2021/12/28 02:54:43;;;;;;;36.38;23.77;;;28.30;99.90;;;;;;5036862;28;20037;-69
2021/12/28 02:57:10;;;;;;;39.42;23.90;;;28.30;99.90;;;;;;5036740;28;20028;-67
2021/12/28 02:59:48;;;;;;;42.33;24.85;;;28.40;99.90;;;;;;5036717;28;20488;-67
2021/12/28 03:02:15;;;;;;;31.75;22.38;;;28.40;99.90;;;;;;5036543;28;20056;-65
2021/12/28 03:04:42;;;;;;;36.53;23.83;;;28.20;99.90;;;;;;5036622;28;20389;-69
2021/12/28 03:07:08;;;;;;;41.05;25.17;;;28.10;99.90;;;;;;5036706;28;20033;-69
2021/12/28 03:09:36;;;;;;;37.58;26.63;;;28.00;99.90;;;;;;5035129;28;20021;-66
2021/12/28 03:12:04;;;;;;;33.40;23.55;;;28.00;99.90;;;;;;5022178;28;20034;-66
2021/12/28 03:14:31;;;;;;;35.38;24.35;;;28.00;99.90;;;;;;5020535;28;20320;-66
2021/12/28 03:16:58;;;;;;;34.95;24.02;;;28.00;99.90;;;;;;5036558;28;20037;-66
2021/12/28 03:19:25;;;;;;;34.13;24.23;;;28.10;99.90;;;;;;5035800;28;20036;-67
2021/12/28 03:21:51;;;;;;;36.13;22.80;;;28.20;99.90;;;;;;5036299;28;20032;-67
2021/12/28 03:24:19;;;;;;;34.60;23.02;;;28.20;99.90;;;;;;5031804;28;20033;-64
2021/12/28 03:26:46;;;;;;;32.88;23.52;;;28.20;99.90;;;;;;5034409;28;20565;-67
2021/12/28 03:29:12;;;;;;;29.98;20.40;;;28.40;99.90;;;;;;5036121;28;20038;-69
2021/12/28 03:31:39;;;;;;;28.40;20.40;;;28.50;99.90;;;;;;5036319;28;20100;-67
2021/12/28 03:34:06;;;;;;;27.30;19.20;;;28.60;99.90;;;;;;5035645;28;20425;-67
2021/12/28 03:36:33;;;;;;;26.08;18.48;;;28.70;99.90;;;;;;5035476;28;20064;-67
2021/12/28 03:39:00;;;;;;;25.55;18.25;;;28.80;99.90;;;;;;5035918;28;20099;-65
2021/12/28 03:41:28;;;;;;;38.90;26.55;;;28.80;99.90;;;;;;5035921;28;20484;-67
2021/12/28 03:43:56;;;;;;;31.63;22.10;;;28.70;99.90;;;;;;5028788;28;20397;-66
2021/12/28 03:46:26;;;;;;;35.72;20.65;;;28.80;99.90;;;;;;5028204;28;20022;-66
2021/12/28 03:48:53;;;;;;;40.03;20.48;;;28.80;99.90;;;;;;5024353;28;20064;-66
2021/12/28 03:51:20;;;;;;;32.05;18.52;;;28.80;99.90;;;;;;5033604;28;20454;-66
2021/12/28 03:53:48;;;;;;;27.77;18.80;;;28.90;99.90;;;;;;5037634;28;20056;-66
2021/12/28 03:56:15;;;;;;;24.23;17.70;;;29.10;99.90;;;;;;5029184;28;20088;-65
2021/12/28 03:58:44;;;;;;;30.08;20.73;;;29.20;99.90;;;;;;5026036;28;20022;-65
2021/12/28 04:01:13;;;;;;;34.08;21.10;;;29.20;99.90;;;;;;5022252;28;20034;-69
2021/12/28 04:03:40;;;;;;;30.42;21.52;;;29.20;99.90;;;;;;5020963;28;20050;-66
2021/12/28 04:06:08;;;;;;;30.15;20.95;;;29.00;99.90;;;;;;5030037;28;20092;-67
2021/12/28 04:08:38;;;;;;;37.22;22.88;;;28.90;99.90;;;;;;5034150;28;20503;-68
2021/12/28 04:11:25;;;;;;;31.30;19.92;;;28.90;99.90;;;;;;5031035;28;20041;-69
2021/12/28 04:13:54;;;;;;;32.55;17.95;;;29.00;99.90;;;;;;5028264;28;20029;-67
2021/12/28 04:16:22;;;;;;;25.20;19.23;;;28.90;99.90;;;;;;5025948;28;20083;-66
2021/12/28 04:18:49;;;;;;;27.55;19.35;;;28.90;99.90;;;;;;5033194;28;20029;-67
2021/12/28 04:21:15;;;;;;;26.77;18.98;;;28.90;99.90;;;;;;5033292;28;20026;-66
2021/12/28 04:23:43;;;;;;;28.02;18.48;;;29.00;99.90;;;;;;5033032;28;20490;-69
2021/12/28 04:26:09;;;;;;;20.15;16.23;;;29.30;99.90;;;;;;5028386;28;20045;-67
2021/12/28 04:28:36;;;;;;;22.67;16.83;;;29.40;99.90;;;;;;5030867;28;20108;-65
2021/12/28 04:31:03;;;;;;;26.20;17.10;;;29.50;99.90;;;;;;5033563;28;20029;-67
2021/12/28 04:33:30;;;;;;;26.73;17.30;;;29.60;99.90;;;;;;5031247;28;20494;-67
2021/12/28 04:35:57;;;;;;;29.55;19.08;;;29.60;99.90;;;;;;5032149;28;20348;-66
2021/12/28 04:38:24;;;;;;;25.58;18.05;;;29.70;99.90;;;;;;5033895;28;20475;-68
2021/12/28 04:40:51;;;;;;;26.58;19.83;;;29.60;99.90;;;;;;5032781;28;20037;-69
2021/12/28 04:43:17;;;;;;;26.13;18.77;;;29.40;99.90;;;;;;5031413;28;20025;-68
2021/12/28 04:45:44;;;;;;;25.83;17.45;;;29.20;99.90;;;;;;5031378;28;20033;-68
2021/12/28 04:48:11;;;;;;;25.58;18.75;;;29.10;99.90;;;;;;5031849;28;20017;-69
2021/12/28 04:50:42;;;;;;;31.15;20.77;;;29.10;99.90;;;;;;5031629;28;20418;-68
2021/12/28 04:53:11;;;;;;;27.33;18.30;;;29.30;99.90;;;;;;5031435;28;20551;-67
2021/12/28 04:55:42;;;;;;;29.88;19.38;;;29.60;99.90;;;;;;5030590;28;20233;-68
2021/12/28 04:58:10;;;;;;;25.88;19.00;;;29.80;99.90;;;;;;5031953;28;20029;-66
2021/12/28 05:00:38;;;;;;;25.08;16.45;;;29.90;99.90;;;;;;5032611;28;20083;-66
2021/12/28 05:03:05;;;;;;;27.80;17.90;;;30.00;99.90;;;;;;5033971;28;20041;-68
2021/12/28 05:05:33;;;;;;;32.67;21.55;;;29.80;99.90;;;;;;5031791;28;20460;-68
2021/12/28 05:08:00;;;;;;;25.40;18.00;;;29.90;99.90;;;;;;5030641;28;20300;-68
2021/12/28 05:10:27;;;;;;;35.78;19.08;;;29.80;99.90;;;;;;5033476;28;20104;-68
2021/12/28 05:12:53;;;;;;;32.67;21.08;;;29.70;99.90;;;;;;5031668;28;20182;-68
2021/12/28 05:15:20;;;;;;;28.23;16.13;;;29.70;99.90;;;;;;5033101;28;20108;-67
2021/12/28 05:17:47;;;;;;;21.05;13.73;;;29.70;99.90;;;;;;5030597;28;20548;-67
2021/12/28 05:20:14;;;;;;;22.42;15.07;;;29.90;99.90;;;;;;5032380;28;20505;-67
2021/12/28 05:22:41;;;;;;;22.05;15.95;;;29.90;99.90;;;;;;5031248;28;20033;-69
2021/12/28 05:25:08;;;;;;;20.95;16.98;;;30.00;99.90;;;;;;5031114;28;20025;-66
2021/12/28 05:27:36;;;;;;;24.38;14.73;;;29.90;99.90;;;;;;5031667;28;20029;-71
2021/12/28 05:30:05;;;;;;;24.83;15.95;;;29.80;99.90;;;;;;5029511;28;20033;-67
2021/12/28 05:32:31;;;;;;;19.05;14.98;;;29.70;99.90;;;;;;5025702;28;20026;-67
2021/12/28 05:34:58;;;;;;;21.60;15.07;;;29.60;99.90;;;;;;5033375;28;20030;-67
2021/12/28 05:37:25;;;;;;;22.15;15.80;;;29.70;99.90;;;;;;5033338;28;20023;-66
2021/12/28 05:39:52;;;;;;;17.70;14.15;;;29.80;99.90;;;;;;5033990;28;20079;-66
2021/12/28 05:42:19;;;;;;;110.55;89.63;;;30.00;99.90;;;;;;5033222;28;20064;-66
2021/12/28 05:44:45;;;;;;;102.68;74.75;;;30.00;99.90;;;;;;5032179;28;20461;-66
2021/12/28 05:47:12;;;;;;;64.07;48.80;;;30.20;99.90;;;;;;5032684;28;20104;-66
2021/12/28 05:49:39;;;;;;;31.23;20.50;;;30.20;99.90;;;;;;5032263;28;20488;-64
2021/12/28 05:52:06;;;;;;;23.35;16.45;;;30.30;99.90;;;;;;5032085;28;20060;-66
2021/12/28 05:54:33;;;;;;;28.42;22.55;;;30.40;99.90;;;;;;5032942;28;20160;-66
2021/12/28 05:56:59;;;;;;;15.70;12.07;;;30.40;99.90;;;;;;5034165;28;20030;-65
2021/12/28 05:59:26;;;;;;;19.73;13.70;;;30.30;99.90;;;;;;5034090;28;20021;-65
2021/12/28 06:01:53;;;;;;;24.60;15.73;;;30.30;99.90;;;;;;5033455;28;20128;-66
2021/12/28 06:04:19;;;;;;;24.00;13.00;;;30.40;99.90;;;;;;5031830;28;20025;-66
2021/12/28 06:06:46;;;;;;;22.25;12.93;;;30.30;99.90;;;;;;5027920;28;20042;-66
2021/12/28 06:09:13;;;;;;;22.63;13.30;;;30.10;99.90;;;;;;5032912;28;20021;-67
2021/12/28 06:11:40;;;;;;;25.23;13.10;;;30.10;99.90;;;;;;5032168;28;20037;-64
2021/12/28 06:14:07;;;;;;;18.80;13.15;;;30.00;99.90;;;;;;5029488;28;20041;-66
2021/12/28 06:16:38;;;;;;;33.22;27.00;;;29.90;99.90;;;;;;5028461;28;20030;-68
2021/12/28 06:19:06;;;;;;;27.77;20.13;;;29.90;99.90;;;;;;5028865;28;20033;-71
2021/12/28 06:21:34;;;;;;;61.20;44.50;;;30.10;99.90;;;;;;5034879;28;20037;-70
2021/12/28 06:24:03;;;;;;;20.55;16.95;;;30.20;99.90;;;;;;5036657;28;20437;-70
2021/12/28 06:26:33;;;;;;;34.95;26.70;;;30.30;99.90;;;;;;5037071;28;20021;-68
2021/12/28 06:29:04;;;;;;;41.03;32.08;;;30.20;99.90;;;;;;5036269;28;20034;-68
2021/12/28 06:31:30;;;;;;;18.92;12.50;;;30.20;99.90;;;;;;5031887;28;20390;-68
2021/12/28 06:33:58;;;;;;;85.05;58.92;;;30.00;99.90;;;;;;5035414;28;20033;-69
2021/12/28 06:36:26;;;;;;;53.13;41.78;;;30.00;99.90;;;;;;5038677;28;20082;-67
2021/12/28 06:38:53;;;;;;;20.38;13.27;;;30.00;99.90;;;;;;5033390;28;20469;-70
2021/12/28 06:41:19;;;;;;;20.55;12.82;;;30.30;99.90;;;;;;5034256;28;20065;-71
2021/12/28 06:43:48;;;;;;;24.48;16.80;;;30.20;99.90;;;;;;5034189;28;20112;-70
2021/12/28 06:46:15;;;;;;;30.50;25.27;;;30.30;99.90;;;;;;5035270;28;20041;-70
2021/12/28 06:48:42;;;;;;;30.25;14.57;;;30.30;99.90;;;;;;5035607;28;20025;-69
2021/12/28 06:51:09;;;;;;;15.82;12.18;;;30.30;99.90;;;;;;5035639;28;20036;-72
2021/12/28 06:53:36;;;;;;;18.38;13.05;;;30.30;99.20;;;;;;5035113;28;20029;-69
2021/12/28 06:56:03;;;;;;;160.55;114.43;;;30.40;99.90;;;;;;5035401;28;20025;-68
2021/12/28 06:58:30;;;;;;;51.45;37.55;;;30.50;99.90;;;;;;5036164;28;20432;-68
2021/12/28 07:00:58;;;;;;;57.33;39.42;;;30.60;99.90;;;;;;5035547;28;20500;-69
2021/12/28 07:03:24;;;;;;;59.15;39.45;;;30.60;99.90;;;;;;5034007;28;20125;-68
2021/12/28 07:05:51;;;;;;;35.28;30.20;;;30.60;99.90;;;;;;5034872;28;20041;-68
2021/12/28 07:08:18;;;;;;;17.23;13.40;;;30.70;99.90;;;;;;5034627;28;20047;-72
2021/12/28 07:10:44;;;;;;;46.08;35.35;;;30.60;99.90;;;;;;5032353;28;20037;-71
2021/12/28 07:13:11;;;;;;;15.30;11.35;;;30.70;99.90;;;;;;5034663;28;20108;-70
2021/12/28 07:15:38;;;;;;;32.15;11.20;;;30.70;99.90;;;;;;5033730;28;20043;-69
2021/12/28 07:18:05;;;;;;;21.95;10.18;;;30.60;99.90;;;;;;5035007;28;20013;-69
2021/12/28 07:20:32;;;;;;;17.63;11.73;;;30.50;99.90;;;;;;5034343;28;20087;-68
2021/12/28 07:22:58;;;;;;;19.10;11.50;;;30.50;99.90;;;;;;5033767;28;20014;-72
2021/12/28 07:25:25;;;;;;;83.03;62.83;;;30.50;99.90;;;;;;5032513;28;20025;-67
2021/12/28 07:27:56;;;;;;;23.25;14.48;;;30.60;99.90;;;;;;5034196;28;20017;-68
2021/12/28 07:30:23;;;;;;;16.05;11.73;;;30.60;99.90;;;;;;5032039;28;20362;-69
2021/12/28 07:32:50;;;;;;;19.80;12.38;;;30.60;99.90;;;;;;5025146;28;20473;-70
2021/12/28 07:35:17;;;;;;;14.77;11.35;;;30.60;99.90;;;;;;5025425;28;20067;-70
2021/12/28 07:37:44;;;;;;;25.50;11.55;;;30.60;99.90;;;;;;5035699;28;20494;-69
2021/12/28 07:40:11;;;;;;;16.27;11.52;;;30.60;99.90;;;;;;5031882;28;20037;-70
2021/12/28 07:42:40;;;;;;;24.33;13.38;;;30.60;99.90;;;;;;5033466;28;20022;-71
2021/12/28 07:45:09;;;;;;;19.33;10.90;;;30.70;99.90;;;;;;5029419;28;20037;-69
2021/12/28 07:47:37;;;;;;;12.63;9.43;;;30.70;99.60;;;;;;5031359;28;20021;-71
2021/12/28 07:50:08;;;;;;;13.88;9.50;;;30.70;97.90;;;;;;5033836;28;20029;-70
2021/12/28 07:52:35;;;;;;;12.07;9.10;;;30.70;98.10;;;;;;5033190;28;20029;-70
2021/12/28 07:55:04;;;;;;;20.02;10.25;;;30.70;98.70;;;;;;5031580;28;20029;-70
2021/12/28 07:57:31;;;;;;;17.70;10.60;;;30.70;99.50;;;;;;5029531;28;20084;-68
2021/12/28 07:59:58;;;;;;;16.30;10.77;;;30.70;97.50;;;;;;5026615;28;20021;-71
2021/12/28 08:02:25;;;;;;;13.13;10.20;;;30.90;98.50;;;;;;5029635;28;20401;-71
2021/12/28 08:04:51;;;;;;;15.13;9.82;;;30.80;95.70;;;;;;5030198;28;20022;-71
2021/12/28 08:07:18;;;;;;;12.18;8.75;;;30.80;95.30;;;;;;5029520;28;20029;-70
2021/12/28 08:09:45;;;;;;;13.90;8.80;;;30.80;96.00;;;;;;5032826;28;20129;-71
2021/12/28 08:12:11;;;;;;;13.63;8.82;;;30.90;94.70;;;;;;5026962;28;20040;-70
2021/12/28 08:14:38;;;;;;;14.27;10.10;;;30.80;95.90;;;;;;5028704;28;20030;-74
2021/12/28 08:17:05;;;;;;;12.88;9.15;;;30.80;96.80;;;;;;5028523;28;20434;-70
2021/12/28 08:19:32;;;;;;;20.15;9.52;;;30.80;95.90;;;;;;5026201;28;20438;-73
2021/12/28 08:21:58;;;;;;;17.55;8.57;;;30.80;95.50;;;;;;5035047;28;20052;-71
2021/12/28 08:24:25;;;;;;;18.17;9.13;;;30.80;96.60;;;;;;5034122;28;20028;-71
2021/12/28 08:26:52;;;;;;;148.93;106.03;;;30.80;96.50;;;;;;5033418;28;20043;-70
2021/12/28 08:29:18;;;;;;;98.75;61.55;;;30.70;97.00;;;;;;5034184;28;20485;-69
2021/12/28 08:31:45;;;;;;;65.38;43.95;;;30.70;96.40;;;;;;5034421;28;20049;-70
2021/12/28 08:34:12;;;;;;;52.65;33.08;;;30.80;96.10;;;;;;5029682;28;20025;-70
2021/12/28 08:36:38;;;;;;;81.10;64.95;;;30.70;97.20;;;;;;5028648;28;20029;-72
2021/12/28 08:39:05;;;;;;;25.70;15.02;;;30.70;98.10;;;;;;5034151;28;20494;-69
2021/12/28 08:41:32;;;;;;;17.40;10.55;;;30.60;99.00;;;;;;5034503;28;20036;-71
2021/12/28 08:43:59;;;;;;;13.57;9.55;;;30.60;98.70;;;;;;5033392;28;20481;-71
2021/12/28 08:46:25;;;;;;;15.80;9.50;;;30.50;99.30;;;;;;5033964;28;20087;-71
2021/12/28 08:48:52;;;;;;;21.63;9.45;;;30.50;99.10;;;;;;5029896;28;20035;-69
2021/12/28 08:51:19;;;;;;;14.43;9.38;;;30.50;96.30;;;;;;5033073;28;20029;-71
2021/12/28 08:53:46;;;;;;;18.52;10.07;;;30.40;94.40;;;;;;5028411;28;20548;-70
2021/12/28 08:56:13;;;;;;;16.90;10.07;;;30.40;94.90;;;;;;5026358;28;20698;-70
2021/12/28 08:58:40;;;;;;;20.30;9.73;;;30.30;94.90;;;;;;5028415;28;20029;-70
2021/12/28 09:01:06;;;;;;;19.45;9.77;;;30.30;96.20;;;;;;5027601;28;20026;-70
2021/12/28 09:03:33;;;;;;;14.65;9.50;;;30.30;96.80;;;;;;5029624;28;20092;-69
2021/12/28 09:06:02;;;;;;;20.13;9.02;;;30.30;96.90;;;;;;5027124;28;20048;-70
2021/12/28 09:08:29;;;;;;;19.15;10.07;;;30.30;98.30;;;;;;5027754;28;20018;-70
2021/12/28 09:10:55;;;;;;;18.58;9.75;;;30.30;97.90;;;;;;5024671;28;20121;-71
2021/12/28 09:13:22;;;;;;;15.40;9.43;;;30.30;98.70;;;;;;5031554;28;20385;-72
2021/12/28 09:15:49;;;;;;;59.38;44.78;;;30.30;97.40;;;;;;5033826;28;20475;-71
2021/12/28 09:18:15;;;;;;;55.63;36.83;;;30.10;97.70;;;;;;5033401;28;20096;-73
2021/12/28 09:20:43;;;;;;;20.73;9.48;;;30.00;97.90;;;;;;5033843;28;20108;-70
2021/12/28 09:23:12;;;;;;;16.73;9.25;;;29.90;98.30;;;;;;5029676;28;20033;-70
2021/12/28 09:25:39;;;;;;;64.15;45.38;;;29.90;98.80;;;;;;5024561;28;20478;-71
2021/12/28 09:28:08;;;;;;;76.95;51.60;;;29.90;99.50;;;;;;5029896;28;20055;-71
2021/12/28 09:30:35;;;;;;;17.92;12.70;;;29.90;99.10;;;;;;5030151;28;20061;-71
2021/12/28 09:33:02;;;;;;;26.33;15.55;;;30.00;99.40;;;;;;5030517;28;20087;-71
2021/12/28 09:35:29;;;;;;;24.88;15.95;;;30.00;99.30;;;;;;5029422;28;20029;-72
2021/12/28 09:37:56;;;;;;;28.30;17.95;;;30.00;99.90;;;;;;5032363;28;20029;-70
2021/12/28 09:40:22;;;;;;;34.13;19.77;;;30.00;99.20;;;;;;5028244;28;20033;-71
2021/12/28 09:42:49;;;;;;;31.15;16.73;;;30.00;98.20;;;;;;5031223;28;20026;-70
2021/12/28 09:45:16;;;;;;;25.55;15.45;;;29.90;98.20;;;;;;5026558;28;20026;-71
2021/12/28 09:47:43;;;;;;;38.00;23.42;;;29.80;97.30;;;;;;5026497;28;20052;-70
2021/12/28 09:50:15;;;;;;;21.85;13.25;;;29.70;97.60;;;;;;5029914;28;20026;-70
2021/12/28 09:52:44;;;;;;;25.33;12.63;;;29.80;98.50;;;;;;5031397;28;20083;-72
2021/12/28 09:55:13;;;;;;;28.13;13.18;;;29.80;98.90;;;;;;5025401;28;20037;-70
2021/12/28 09:57:41;;;;;;;22.20;12.18;;;29.70;97.20;;;;;;5031865;28;20029;-71
2021/12/28 10:00:09;;;;;;;19.17;11.20;;;29.60;97.80;;;;;;5031098;28;20096;-70
2021/12/28 10:02:37;;;;;;;17.30;9.73;;;29.60;98.50;;;;;;5029773;28;20518;-71
2021/12/28 10:05:14;;;;;;;33.92;13.75;;;29.60;97.70;;;;;;5031400;28;20088;-70
2021/12/28 10:07:48;;;;;;;20.85;12.98;;;29.50;98.10;;;;;;5023908;28;20034;-72
2021/12/28 10:10:15;;;;;;;36.55;19.80;;;29.50;99.20;;;;;;5028133;28;20022;-70
2021/12/28 10:12:44;;;;;;;33.00;19.30;;;29.60;99.90;;;;;;5028943;28;20426;-70
2021/12/28 10:15:18;;;;;;;24.30;14.88;;;29.50;98.80;;;;;;5030593;28;20029;-69
2021/12/28 10:17:49;;;;;;;36.05;17.98;;;29.40;99.90;;;;;;5031738;28;20072;-71
2021/12/28 10:20:30;;;;;;;26.38;12.98;;;29.40;99.90;;;;;;5030057;28;20044;-70
2021/12/28 10:23:01;;;;;;;31.33;17.40;;;29.40;99.90;;;;;;5030996;28;20104;-70
2021/12/28 10:25:35;;;;;;;22.30;13.32;;;29.30;99.90;;;;;;5024003;28;20036;-70
2021/12/28 10:28:12;;;;;;;31.60;16.52;;;29.20;99.90;;;;;;5026225;28;20482;-70
2021/12/28 10:30:47;;;;;;;28.83;15.63;;;29.10;99.90;;;;;;5020989;28;20168;-71
2021/12/28 10:33:17;;;;;;;90.55;60.83;;;29.10;99.90;;;;;;5028201;28;20076;-72
2021/12/28 10:35:47;;;;;;;59.40;39.63;;;29.10;99.90;;;;;;5024581;28;20053;-70
2021/12/28 10:38:18;;;;;;;63.85;37.63;;;29.10;99.90;;;;;;5026051;28;20022;-71
2021/12/28 10:40:57;;;;;;;65.18;37.08;;;29.00;99.90;;;;;;5023691;28;20490;-72
2021/12/28 10:43:28;;;;;;;40.33;25.10;;;29.00;99.90;;;;;;5026427;28;20036;-71
2021/12/28 10:46:01;;;;;;;61.45;37.25;;;29.00;99.90;;;;;;5023599;28;20442;-75
2021/12/28 10:48:37;;;;;;;44.25;27.52;;;28.90;99.90;;;;;;5025890;28;20097;-75
2021/12/28 10:51:12;;;;;;;61.05;33.80;;;28.90;99.90;;;;;;5024375;28;20033;-73
2021/12/28 10:53:54;;;;;;;1873.45;949.90;;;28.90;99.90;;;;;;5027304;28;20105;-73
2021/12/28 10:56:23;;;;;;;761.88;469.65;;;28.90;99.90;;;;;;5033518;28;20021;-73
2021/12/28 10:58:51;;;;;;;899.88;569.72;;;28.90;99.90;;;;;;5028832;28;20483;-75
2021/12/28 11:01:20;;;;;;;1057.18;561.33;;;28.90;99.90;;;;;;5031631;28;20071;-73
2021/12/28 11:03:52;;;;;;;70.47;40.20;;;28.90;99.90;;;;;;5026289;28;20065;-74
2021/12/28 11:06:27;;;;;;;1422.70;731.40;;;28.90;99.90;;;;;;5025945;28;20027;-73
2021/12/28 11:08:57;;;;;;;1572.20;817.95;;;28.80;99.90;;;;;;5027534;28;20032;-72
2021/12/28 11:11:25;;;;;;;427.85;253.20;;;28.80;99.90;;;;;;5021039;28;20398;-70
2021/12/28 11:14:01;;;;;;;517.38;298.73;;;28.80;99.90;;;;;;5031981;28;20029;-77
2021/12/28 11:16:29;;;;;;;1068.80;589.10;;;28.80;99.90;;;;;;5032320;28;20028;-76
2021/12/28 11:18:58;;;;;;;481.77;237.50;;;28.80;99.90;;;;;;5021549;28;20089;-69
2021/12/28 11:21:31;;;;;;;266.58;130.27;;;28.80;99.90;;;;;;5028862;28;20053;-77
2021/12/28 11:24:10;;;;;;;77.03;42.92;;;28.70;99.90;;;;;;5019770;28;20104;-74
2021/12/28 11:26:38;;;;;;;74.45;41.95;;;28.80;99.90;;;;;;5020510;28;20040;-70
2021/12/28 11:29:08;;;;;;;64.97;41.78;;;28.70;99.90;;;;;;5032901;28;20026;-71
2021/12/28 11:31:42;;;;;;;271.30;189.13;;;28.60;99.90;;;;;;5034515;28;20024;-71
2021/12/28 11:34:18;;;;;;;135.43;85.10;;;28.70;99.90;;;;;;5030730;28;20127;-69
2021/12/28 11:36:54;;;;;;;88.82;53.83;;;28.70;99.90;;;;;;5029078;28;20038;-68
2021/12/28 11:39:23;;;;;;;62.55;34.00;;;28.60;99.90;;;;;;5023392;28;20084;-69
2021/12/28 11:41:51;;;;;;;59.72;38.50;;;28.60;99.90;;;;;;5035110;28;20029;-71
2021/12/28 11:44:20;;;;;;;51.25;28.45;;;28.60;99.90;;;;;;5032244;28;20467;-71
2021/12/28 11:46:48;;;;;;;49.47;29.23;;;28.50;99.90;;;;;;5024303;28;20018;-71
2021/12/28 11:49:15;;;;;;;53.95;34.60;;;28.50;99.90;;;;;;5027489;28;20030;-73
2021/12/28 11:51:46;;;;;;;68.88;39.70;;;28.50;99.90;;;;;;5031553;28;20075;-72
2021/12/28 11:54:15;;;;;;;51.50;30.80;;;28.50;99.90;;;;;;5027637;28;20022;-73
2021/12/28 11:56:45;;;;;;;58.95;29.33;;;28.50;99.90;;;;;;5026850;28;20021;-70
2021/12/28 11:59:21;;;;;;;46.67;28.88;;;28.50;99.90;;;;;;5027763;28;20510;-70
2021/12/28 12:02:05;;;;;;;53.97;29.13;;;28.50;99.90;;;;;;5023047;28;20438;-70
2021/12/28 12:04:35;;;;;;;49.35;29.75;;;28.50;99.90;;;;;;5029752;28;20021;-69
2021/12/28 12:07:10;;;;;;;62.03;33.35;;;28.50;99.90;;;;;;5026431;28;20029;-70
2021/12/28 12:09:52;;;;;;;62.13;34.88;;;28.50;99.90;;;;;;5028466;28;20017;-72
2021/12/28 12:12:27;;;;;;;65.65;42.40;;;28.40;99.90;;;;;;5028762;28;20037;-71
2021/12/28 12:15:09;;;;;;;52.40;36.55;;;28.30;99.90;;;;;;5027734;28;20034;-69
2021/12/28 12:17:38;;;;;;;52.20;33.97;;;28.30;99.90;;;;;;5028692;28;20037;-75
2021/12/28 12:20:18;;;;;;;55.88;33.30;;;28.30;99.90;;;;;;5028765;28;20083;-74
2021/12/28 12:22:48;;;;;;;55.60;32.70;;;28.30;99.90;;;;;;5027964;28;20477;-71
2021/12/28 12:25:20;;;;;;;51.88;32.33;;;28.20;99.90;;;;;;5029551;28;20043;-71
2021/12/28 12:27:51;;;;;;;43.70;28.63;;;28.20;99.90;;;;;;5033696;28;20045;-68
2021/12/28 12:30:38;;;;;;;42.55;29.48;;;28.20;99.90;;;;;;5032713;28;20025;-70
2021/12/28 12:33:07;;;;;;;45.58;31.85;;;28.20;99.90;;;;;;5034291;28;20470;-71
2021/12/28 12:35:41;;;;;;;53.58;36.35;;;28.10;99.90;;;;;;5033481;28;20125;-69